sensor_id;sensor_type;location;lat;lon;timestamp;pressure;altitude;pressure_sealevel;temperature;humidity
6694;BME280;3384;42.628;23.380;2022-10-19T00:00:17;94816.59;;;8.31;100.00
6694;BME280;3384;42.628;23.380;2022-10-19T00:02:44;94816.03;;;8.39;100.00
6694;BME280;3384;42.628;23.380;2022-10-19T00:05:10;94814.47;;;8.18;100.00
6694;BME280;3384;42.628;23.380;2022-10-19T00:07:38;94805.94;;;8.26;100.00
6694;BME280;3384;42.628;23.380;2022-10-19T00:10:05;94811.34;;;7.91;100.00
6694;BME280;3384;42.628;23.380;2022-10-19T00:12:33;94805.69;;;8.13;100.00
6694;BME280;3384;42.628;23.380;2022-10-19T00:15:00;94801.56;;;8.51;100.00
6694;BME280;3384;42.628;23.380;2022-10-19T00:17:27;94799.97;;;8.44;100.00
6694;BME280;3384;42.628;23.380;2022-10-19T00:19:54;94799.44;;;8.48;100.00
6694;BME280;3384;42.628;23.380;2022-10-19T00:22:21;94804.78;;;8.48;100.00
6694;BME280;3384;42.628;23.380;2022-10-19T00:24:48;94794.63;;;8.44;100.00
6694;BME280;3384;42.628;23.380;2022-10-19T00:27:15;94794.28;;;8.61;100.00
6694;BME280;3384;42.628;23.380;2022-10-19T00:29:43;94794.44;;;8.31;100.00
6694;BME280;3384;42.628;23.380;2022-10-19T00:32:10;94781.59;;;8.33;100.00
6694;BME280;3384;42.628;23.380;2022-10-19T00:34:37;94787.31;;;7.91;100.00
6694;BME280;3384;42.628;23.380;2022-10-19T00:37:04;94770.28;;;7.67;100.00
6694;BME280;3384;42.628;23.380;2022-10-19T00:39:30;94771.91;;;7.63;100.00
6694;BME280;3384;42.628;23.380;2022-10-19T00:41:57;94766.59;;;7.53;100.00
6694;BME280;3384;42.628;23.380;2022-10-19T00:45:04;94766.47;;;7.98;100.00
6694;BME280;3384;42.628;23.380;2022-10-19T00:47:31;94761.19;;;7.78;100.00
6694;BME280;3384;42.628;23.380;2022-10-19T00:49:58;94749.41;;;7.89;100.00
6694;BME280;3384;42.628;23.380;2022-10-19T00:52:25;94752.63;;;7.91;100.00
6694;BME280;3384;42.628;23.380;2022-10-19T00:54:54;94748.38;;;7.90;100.00
6694;BME280;3384;42.628;23.380;2022-10-19T00:57:22;94748.63;;;7.99;100.00
6694;BME280;3384;42.628;23.380;2022-10-19T00:59:51;94750.28;;;7.60;100.00
6694;BME280;3384;42.628;23.380;2022-10-19T01:02:20;94743.31;;;7.89;100.00
6694;BME280;3384;42.628;23.380;2022-10-19T01:04:49;94743.31;;;7.84;100.00
6694;BME280;3384;42.628;23.380;2022-10-19T01:07:17;94741.50;;;7.64;100.00
6694;BME280;3384;42.628;23.380;2022-10-19T01:09:44;94733.22;;;7.56;100.00
6694;BME280;3384;42.628;23.380;2022-10-19T01:12:28;94740.13;;;7.82;100.00
6694;BME280;3384;42.628;23.380;2022-10-19T01:15:08;94724.41;;;7.65;100.00
6694;BME280;3384;42.628;23.380;2022-10-19T01:17:48;94728.97;;;7.65;100.00
6694;BME280;3384;42.628;23.380;2022-10-19T01:20:42;94720.19;;;7.24;100.00
6694;BME280;3384;42.628;23.380;2022-10-19T01:26:34;94715.16;;;7.23;100.00
6694;BME280;3384;42.628;23.380;2022-10-19T01:29:11;94712.72;;;7.56;100.00
6694;BME280;3384;42.628;23.380;2022-10-19T01:31:46;94719.31;;;7.79;100.00
6694;BME280;3384;42.628;23.380;2022-10-19T01:34:18;94707.06;;;7.73;100.00
6694;BME280;3384;42.628;23.380;2022-10-19T01:36:54;94705.91;;;7.99;100.00
6694;BME280;3384;42.628;23.380;2022-10-19T01:39:27;94704.41;;;7.68;100.00
6694;BME280;3384;42.628;23.380;2022-10-19T01:42:01;94700.66;;;7.64;100.00
6694;BME280;3384;42.628;23.380;2022-10-19T01:44:37;94695.38;;;7.49;100.00
6694;BME280;3384;42.628;23.380;2022-10-19T01:47:14;94700.41;;;7.70;100.00
6694;BME280;3384;42.628;23.380;2022-10-19T01:49:46;94694.28;;;7.60;100.00
6694;BME280;3384;42.628;23.380;2022-10-19T01:52:17;94689.00;;;7.35;100.00
6694;BME280;3384;42.628;23.380;2022-10-19T01:54:51;94699.88;;;7.58;100.00
6694;BME280;3384;42.628;23.380;2022-10-19T01:57:24;94698.06;;;7.39;100.00
6694;BME280;3384;42.628;23.380;2022-10-19T01:59:53;94697.81;;;7.10;100.00
6694;BME280;3384;42.628;23.380;2022-10-19T02:02:24;94688.78;;;6.96;100.00
6694;BME280;3384;42.628;23.380;2022-10-19T02:04:52;94691.97;;;6.88;100.00
6694;BME280;3384;42.628;23.380;2022-10-19T02:07:21;94679.44;;;6.59;100.00
6694;BME280;3384;42.628;23.380;2022-10-19T02:09:50;94694.63;;;6.38;100.00
6694;BME280;3384;42.628;23.380;2022-10-19T02:12:17;94686.13;;;6.56;100.00
6694;BME280;3384;42.628;23.380;2022-10-19T02:14:49;94682.88;;;6.44;100.00
6694;BME280;3384;42.628;23.380;2022-10-19T02:17:19;94681.31;;;6.63;100.00
6694;BME280;3384;42.628;23.380;2022-10-19T02:19:49;94678.06;;;6.26;100.00
6694;BME280;3384;42.628;23.380;2022-10-19T02:22:17;94685.03;;;6.42;100.00
6694;BME280;3384;42.628;23.380;2022-10-19T02:24:44;94680.47;;;6.23;100.00
6694;BME280;3384;42.628;23.380;2022-10-19T02:27:11;94681.81;;;6.30;100.00
6694;BME280;3384;42.628;23.380;2022-10-19T02:29:39;94683.44;;;6.41;100.00
6694;BME280;3384;42.628;23.380;2022-10-19T02:32:09;94689.75;;;6.20;100.00
6694;BME280;3384;42.628;23.380;2022-10-19T02:34:37;94682.31;;;6.27;100.00
6694;BME280;3384;42.628;23.380;2022-10-19T02:37:06;94677.53;;;6.34;100.00
6694;BME280;3384;42.628;23.380;2022-10-19T02:39:33;94681.25;;;6.23;100.00
6694;BME280;3384;42.628;23.380;2022-10-19T02:42:03;94678.53;;;5.93;100.00
6694;BME280;3384;42.628;23.380;2022-10-19T02:44:36;94677.84;;;6.38;100.00
6694;BME280;3384;42.628;23.380;2022-10-19T02:47:09;94680.53;;;6.73;100.00
6694;BME280;3384;42.628;23.380;2022-10-19T02:49:37;94677.56;;;7.19;100.00
6694;BME280;3384;42.628;23.380;2022-10-19T02:52:07;94675.72;;;7.15;100.00
6694;BME280;3384;42.628;23.380;2022-10-19T02:54:34;94668.78;;;7.14;100.00
6694;BME280;3384;42.628;23.380;2022-10-19T02:57:02;94669.03;;;7.22;100.00
6694;BME280;3384;42.628;23.380;2022-10-19T02:59:29;94670.88;;;7.37;100.00
6694;BME280;3384;42.628;23.380;2022-10-19T03:01:56;94667.44;;;7.26;100.00
6694;BME280;3384;42.628;23.380;2022-10-19T03:04:23;94659.22;;;7.13;100.00
6694;BME280;3384;42.628;23.380;2022-10-19T03:06:49;94665.53;;;7.42;100.00
6694;BME280;3384;42.628;23.380;2022-10-19T03:09:17;94663.44;;;7.34;100.00
6694;BME280;3384;42.628;23.380;2022-10-19T03:11:44;94659.97;;;7.28;100.00
6694;BME280;3384;42.628;23.380;2022-10-19T03:14:11;94669.03;;;7.27;100.00
6694;BME280;3384;42.628;23.380;2022-10-19T03:16:38;94673.81;;;7.35;97.87
6694;BME280;3384;42.628;23.380;2022-10-19T03:19:05;94674.09;;;7.24;97.49
6694;BME280;3384;42.628;23.380;2022-10-19T03:21:33;94678.09;;;7.31;97.26
6694;BME280;3384;42.628;23.380;2022-10-19T03:24:00;94678.88;;;7.37;99.08
6694;BME280;3384;42.628;23.380;2022-10-19T03:26:28;94682.34;;;7.42;98.67
6694;BME280;3384;42.628;23.380;2022-10-19T03:28:55;94675.44;;;7.21;100.00
6694;BME280;3384;42.628;23.380;2022-10-19T03:31:21;94676.50;;;7.20;100.00
6694;BME280;3384;42.628;23.380;2022-10-19T03:33:48;94671.19;;;6.95;100.00
6694;BME280;3384;42.628;23.380;2022-10-19T03:36:19;94677.06;;;6.87;100.00
6694;BME280;3384;42.628;23.380;2022-10-19T03:38:48;94669.59;;;6.89;100.00
6694;BME280;3384;42.628;23.380;2022-10-19T03:41:17;94665.88;;;6.75;100.00
6694;BME280;3384;42.628;23.380;2022-10-19T03:43:45;94667.22;;;6.78;100.00
6694;BME280;3384;42.628;23.380;2022-10-19T03:46:12;94662.41;;;6.95;100.00
6694;BME280;3384;42.628;23.380;2022-10-19T03:48:39;94657.63;;;6.77;100.00
6694;BME280;3384;42.628;23.380;2022-10-19T03:51:08;94655.75;;;6.87;100.00
6694;BME280;3384;42.628;23.380;2022-10-19T03:53:36;94661.06;;;6.72;100.00
6694;BME280;3384;42.628;23.380;2022-10-19T03:56:04;94658.41;;;6.72;100.00
6694;BME280;3384;42.628;23.380;2022-10-19T03:58:33;94656.81;;;6.91;100.00
6694;BME280;3384;42.628;23.380;2022-10-19T04:01:05;94647.22;;;7.00;100.00
6694;BME280;3384;42.628;23.380;2022-10-19T04:03:33;94649.91;;;6.90;100.00
6694;BME280;3384;42.628;23.380;2022-10-19T04:06:04;94656.28;;;6.94;100.00
6694;BME280;3384;42.628;23.380;2022-10-19T04:08:31;94649.91;;;6.90;100.00
6694;BME280;3384;42.628;23.380;2022-10-19T04:10:59;94658.97;;;6.94;99.98
6694;BME280;3384;42.628;23.380;2022-10-19T04:13:26;94665.88;;;6.85;100.00
6694;BME280;3384;42.628;23.380;2022-10-19T04:15:53;94660.03;;;6.93;100.00
6694;BME280;3384;42.628;23.380;2022-10-19T04:18:22;94650.44;;;6.97;98.59
6694;BME280;3384;42.628;23.380;2022-10-19T04:20:54;94653.59;;;6.99;99.01
6694;BME280;3384;42.628;23.380;2022-10-19T04:23:21;94645.88;;;6.88;99.56
6694;BME280;3384;42.628;23.380;2022-10-19T04:25:48;94644.56;;;6.85;99.71
6694;BME280;3384;42.628;23.380;2022-10-19T04:28:15;94641.66;;;6.82;100.00
6694;BME280;3384;42.628;23.380;2022-10-19T04:30:42;94639.75;;;6.82;99.45
6694;BME280;3384;42.628;23.380;2022-10-19T04:33:08;94638.47;;;6.65;100.00
6694;BME280;3384;42.628;23.380;2022-10-19T04:35:37;94637.09;;;6.32;100.00
6694;BME280;3384;42.628;23.380;2022-10-19T04:38:03;94634.72;;;6.26;100.00
6694;BME280;3384;42.628;23.380;2022-10-19T04:40:33;94628.03;;;6.33;100.00
6694;BME280;3384;42.628;23.380;2022-10-19T04:43:00;94619.00;;;6.39;100.00
6694;BME280;3384;42.628;23.380;2022-10-19T04:45:27;94638.44;;;6.35;100.00
6694;BME280;3384;42.628;23.380;2022-10-19T04:47:54;94627.50;;;6.16;100.00
6694;BME280;3384;42.628;23.380;2022-10-19T04:50:22;94628.56;;;6.25;100.00
6694;BME280;3384;42.628;23.380;2022-10-19T04:52:50;94635.97;;;5.98;100.00
6694;BME280;3384;42.628;23.380;2022-10-19T04:55:17;94632.84;;;6.21;100.00
6694;BME280;3384;42.628;23.380;2022-10-19T04:57:43;94639.06;;;5.70;100.00
6694;BME280;3384;42.628;23.380;2022-10-19T05:00:11;94636.38;;;5.65;100.00
6694;BME280;3384;42.628;23.380;2022-10-19T05:02:42;94639.03;;;5.65;100.00
6694;BME280;3384;42.628;23.380;2022-10-19T05:05:13;94647.09;;;5.85;100.00
6694;BME280;3384;42.628;23.380;2022-10-19T05:07:42;94629.31;;;6.01;100.00
6694;BME280;3384;42.628;23.380;2022-10-19T05:10:10;94634.41;;;6.27;100.00
6694;BME280;3384;42.628;23.380;2022-10-19T05:12:37;94638.97;;;6.42;100.00
6694;BME280;3384;42.628;23.380;2022-10-19T05:15:05;94633.94;;;6.55;100.00
6694;BME280;3384;42.628;23.380;2022-10-19T05:17:32;94637.91;;;6.48;100.00
6694;BME280;3384;42.628;23.380;2022-10-19T05:19:58;94644.59;;;6.45;100.00
6694;BME280;3384;42.628;23.380;2022-10-19T05:22:25;94637.91;;;6.53;100.00
6694;BME280;3384;42.628;23.380;2022-10-19T05:24:52;94634.19;;;6.44;100.00
6694;BME280;3384;42.628;23.380;2022-10-19T05:27:20;94630.47;;;6.55;100.00
6694;BME280;3384;42.628;23.380;2022-10-19T05:29:47;94631.00;;;6.52;100.00
6694;BME280;3384;42.628;23.380;2022-10-19T05:32:14;94630.19;;;6.56;100.00
6694;BME280;3384;42.628;23.380;2022-10-19T05:34:40;94625.41;;;6.68;100.00
6694;BME280;3384;42.628;23.380;2022-10-19T05:37:07;94628.59;;;6.80;100.00
6694;BME280;3384;42.628;23.380;2022-10-19T05:39:34;94624.31;;;6.84;100.00
6694;BME280;3384;42.628;23.380;2022-10-19T05:42:01;94627.81;;;6.75;100.00
6694;BME280;3384;42.628;23.380;2022-10-19T05:44:29;94630.19;;;6.61;100.00
6694;BME280;3384;42.628;23.380;2022-10-19T05:46:56;94641.09;;;7.00;100.00
6694;BME280;3384;42.628;23.380;2022-10-19T05:49:23;94640.53;;;7.18;100.00
6694;BME280;3384;42.628;23.380;2022-10-19T05:51:49;94639.97;;;7.26;97.69
6694;BME280;3384;42.628;23.380;2022-10-19T05:54:16;94617.41;;;6.93;99.65
6694;BME280;3384;42.628;23.380;2022-10-19T05:56:44;94640.81;;;7.06;100.00
6694;BME280;3384;42.628;23.380;2022-10-19T05:59:13;94647.75;;;7.12;99.84
6694;BME280;3384;42.628;23.380;2022-10-19T06:01:42;94646.34;;;7.35;97.67
6694;BME280;3384;42.628;23.380;2022-10-19T06:04:09;94648.19;;;7.49;96.67
6694;BME280;3384;42.628;23.380;2022-10-19T06:06:38;94642.22;;;7.72;94.76
6694;BME280;3384;42.628;23.380;2022-10-19T06:09:05;94637.66;;;7.83;92.48
6694;BME280;3384;42.628;23.380;2022-10-19T06:11:34;94643.72;;;7.98;92.08
6694;BME280;3384;42.628;23.380;2022-10-19T06:14:03;94650.63;;;8.04;91.09
6694;BME280;3384;42.628;23.380;2022-10-19T06:16:32;94643.09;;;8.16;90.14
6694;BME280;3384;42.628;23.380;2022-10-19T06:19:01;94653.75;;;8.16;89.93
6694;BME280;3384;42.628;23.380;2022-10-19T06:21:29;94658.03;;;8.22;91.67
6694;BME280;3384;42.628;23.380;2022-10-19T06:23:58;94660.41;;;8.19;93.17
6694;BME280;3384;42.628;23.380;2022-10-19T06:26:26;94661.75;;;8.26;92.14
6694;BME280;3384;42.628;23.380;2022-10-19T06:28:54;94662.19;;;8.43;92.29
6694;BME280;3384;42.628;23.380;2022-10-19T06:31:22;94673.41;;;8.40;91.38
6694;BME280;3384;42.628;23.380;2022-10-19T06:33:49;94667.97;;;8.56;88.62
6694;BME280;3384;42.628;23.380;2022-10-19T06:36:21;94673.25;;;8.66;88.17
6694;BME280;3384;42.628;23.380;2022-10-19T06:38:48;94667.59;;;8.72;89.69
6694;BME280;3384;42.628;23.380;2022-10-19T06:41:16;94670.97;;;8.83;89.89
6694;BME280;3384;42.628;23.380;2022-10-19T06:43:43;94662.19;;;8.82;90.82
6694;BME280;3384;42.628;23.380;2022-10-19T06:46:11;94665.22;;;8.66;94.29
6694;BME280;3384;42.628;23.380;2022-10-19T06:48:39;94658.72;;;8.77;95.70
6694;BME280;3384;42.628;23.380;2022-10-19T06:51:06;94659.28;;;9.07;90.90
6694;BME280;3384;42.628;23.380;2022-10-19T06:53:35;94653.63;;;9.14;93.06
6694;BME280;3384;42.628;23.380;2022-10-19T06:56:04;94656.94;;;9.29;91.59
6694;BME280;3384;42.628;23.380;2022-10-19T06:58:33;94648.28;;;9.37;91.56
6694;BME280;3384;42.628;23.380;2022-10-19T07:01:01;94645.34;;;9.39;89.55
6694;BME280;3384;42.628;23.380;2022-10-19T07:03:28;94641.34;;;9.36;90.55
6694;BME280;3384;42.628;23.380;2022-10-19T07:05:57;94639.50;;;9.37;91.07
6694;BME280;3384;42.628;23.380;2022-10-19T07:08:26;94635.50;;;9.58;89.85
6694;BME280;3384;42.628;23.380;2022-10-19T07:10:57;94630.16;;;9.58;89.16
6694;BME280;3384;42.628;23.380;2022-10-19T07:13:25;94633.19;;;9.75;88.61
6694;BME280;3384;42.628;23.380;2022-10-19T07:15:57;94634.84;;;9.71;88.27
6694;BME280;3384;42.628;23.380;2022-10-19T07:18:24;94633.34;;;9.60;90.38
6694;BME280;3384;42.628;23.380;2022-10-19T07:20:55;94629.88;;;9.83;89.45
6694;BME280;3384;42.628;23.380;2022-10-19T07:23:23;94644.16;;;9.97;85.65
6694;BME280;3384;42.628;23.380;2022-10-19T07:25:49;94649.00;;;10.18;85.55
6694;BME280;3384;42.628;23.380;2022-10-19T07:28:19;94634.00;;;10.17;85.68
6694;BME280;3384;42.628;23.380;2022-10-19T07:30:46;94628.34;;;10.19;83.39
6694;BME280;3384;42.628;23.380;2022-10-19T07:33:13;94624.91;;;10.37;84.99
6694;BME280;3384;42.628;23.380;2022-10-19T07:35:40;94623.16;;;10.46;82.39
6694;BME280;3384;42.628;23.380;2022-10-19T07:38:06;94631.13;;;10.51;81.13
6694;BME280;3384;42.628;23.380;2022-10-19T07:40:34;94623.38;;;10.68;79.98
6694;BME280;3384;42.628;23.380;2022-10-19T07:43:01;94606.91;;;10.56;80.07
6694;BME280;3384;42.628;23.380;2022-10-19T07:45:29;94613.50;;;10.82;79.97
6694;BME280;3384;42.628;23.380;2022-10-19T07:47:56;94612.97;;;11.12;77.39
6694;BME280;3384;42.628;23.380;2022-10-19T07:50:22;94602.75;;;10.82;78.51
6694;BME280;3384;42.628;23.380;2022-10-19T07:52:51;94600.94;;;11.09;77.95
6694;BME280;3384;42.628;23.380;2022-10-19T07:55:18;94603.34;;;11.11;78.37
6694;BME280;3384;42.628;23.380;2022-10-19T07:57:46;94600.81;;;11.01;79.71
6694;BME280;3384;42.628;23.380;2022-10-19T08:00:13;94590.34;;;11.32;77.95
6694;BME280;3384;42.628;23.380;2022-10-19T08:02:41;94594.31;;;11.20;79.00
6694;BME280;3384;42.628;23.380;2022-10-19T08:05:08;94581.69;;;11.35;77.24
6694;BME280;3384;42.628;23.380;2022-10-19T08:07:35;94578.03;;;11.31;78.50
6694;BME280;3384;42.628;23.380;2022-10-19T08:10:03;94586.41;;;11.56;79.13
6694;BME280;3384;42.628;23.380;2022-10-19T08:12:29;94589.31;;;11.73;77.47
6694;BME280;3384;42.628;23.380;2022-10-19T08:14:56;94599.34;;;11.54;78.38
6694;BME280;3384;42.628;23.380;2022-10-19T08:17:23;94589.28;;;11.87;76.61
6694;BME280;3384;42.628;23.380;2022-10-19T08:19:51;94596.19;;;11.79;77.00
6694;BME280;3384;42.628;23.380;2022-10-19T08:22:18;94578.97;;;11.80;78.39
6694;BME280;3384;42.628;23.380;2022-10-19T08:24:44;94576.56;;;11.92;77.91
6694;BME280;3384;42.628;23.380;2022-10-19T08:27:11;94576.13;;;12.26;76.68
6694;BME280;3384;42.628;23.380;2022-10-19T08:29:39;94571.88;;;12.33;75.03
6694;BME280;3384;42.628;23.380;2022-10-19T08:32:06;94573.44;;;12.48;73.71
6694;BME280;3384;42.628;23.380;2022-10-19T08:34:33;94571.38;;;12.45;73.58
6694;BME280;3384;42.628;23.380;2022-10-19T08:37:02;94577.91;;;12.74;72.86
6694;BME280;3384;42.628;23.380;2022-10-19T08:39:29;94570.94;;;12.95;71.09
6694;BME280;3384;42.628;23.380;2022-10-19T08:42:00;94566.06;;;12.97;71.29
6694;BME280;3384;42.628;23.380;2022-10-19T08:44:43;94559.34;;;13.08;71.23
6694;BME280;3384;42.628;23.380;2022-10-19T08:47:17;94565.50;;;12.87;71.00
6694;BME280;3384;42.628;23.380;2022-10-19T08:49:48;94552.78;;;13.23;69.54
6694;BME280;3384;42.628;23.380;2022-10-19T08:52:18;94558.94;;;13.54;68.45
6694;BME280;3384;42.628;23.380;2022-10-19T08:54:50;94557.44;;;13.39;67.97
6694;BME280;3384;42.628;23.380;2022-10-19T08:57:27;94550.72;;;13.59;67.39
6694;BME280;3384;42.628;23.380;2022-10-19T09:00:03;94552.53;;;13.80;65.70
6694;BME280;3384;42.628;23.380;2022-10-19T09:02:48;94558.41;;;13.91;66.29
6694;BME280;3384;42.628;23.380;2022-10-19T09:05:23;94553.84;;;14.00;65.09
6694;BME280;3384;42.628;23.380;2022-10-19T09:07:55;94558.63;;;14.03;65.97
6694;BME280;3384;42.628;23.380;2022-10-19T09:10:25;94551.81;;;14.14;64.60
6694;BME280;3384;42.628;23.380;2022-10-19T09:12:56;94548.69;;;14.38;64.11
6694;BME280;3384;42.628;23.380;2022-10-19T09:15:26;94542.53;;;14.63;62.86
6694;BME280;3384;42.628;23.380;2022-10-19T09:17:53;94525.84;;;14.61;62.88
6694;BME280;3384;42.628;23.380;2022-10-19T09:20:22;94535.53;;;14.62;63.68
6694;BME280;3384;42.628;23.380;2022-10-19T09:23:01;94537.91;;;14.72;62.61
6694;BME280;3384;42.628;23.380;2022-10-19T09:25:30;94535.38;;;14.84;61.97
6694;BME280;3384;42.628;23.380;2022-10-19T09:28:04;94535.00;;;15.02;62.17
6694;BME280;3384;42.628;23.380;2022-10-19T09:30:34;94544.69;;;15.03;61.94
6694;BME280;3384;42.628;23.380;2022-10-19T09:33:03;94541.97;;;15.12;61.88
6694;BME280;3384;42.628;23.380;2022-10-19T09:35:33;94538.63;;;15.15;62.03
6694;BME280;3384;42.628;23.380;2022-10-19T09:38:03;94547.16;;;15.34;62.14
6694;BME280;3384;42.628;23.380;2022-10-19T09:40:31;94534.28;;;15.31;61.66
6694;BME280;3384;42.628;23.380;2022-10-19T09:42:57;94549.22;;;15.28;61.39
6694;BME280;3384;42.628;23.380;2022-10-19T09:45:42;94558.16;;;15.37;61.08
6694;BME280;3384;42.628;23.380;2022-10-19T09:48:15;94559.53;;;15.35;59.99
6694;BME280;3384;42.628;23.380;2022-10-19T09:50:50;94548.41;;;15.45;60.59
6694;BME280;3384;42.628;23.380;2022-10-19T09:53:21;94535.84;;;15.49;59.61
6694;BME280;3384;42.628;23.380;2022-10-19T09:55:55;94549.50;;;15.52;58.86
6694;BME280;3384;42.628;23.380;2022-10-19T09:58:25;94534.38;;;15.60;58.63
6694;BME280;3384;42.628;23.380;2022-10-19T10:00:53;94541.66;;;15.68;58.43
6694;BME280;3384;42.628;23.380;2022-10-19T10:03:23;94540.19;;;15.70;58.13
6694;BME280;3384;42.628;23.380;2022-10-19T10:05:50;94525.75;;;15.66;58.53
6694;BME280;3384;42.628;23.380;2022-10-19T10:08:21;94534.13;;;15.82;57.61
6694;BME280;3384;42.628;23.380;2022-10-19T10:10:55;94525.06;;;15.78;58.07
6694;BME280;3384;42.628;23.380;2022-10-19T10:13:24;94519.34;;;15.79;58.29
6694;BME280;3384;42.628;23.380;2022-10-19T10:15:55;94527.56;;;15.83;58.00
6694;BME280;3384;42.628;23.380;2022-10-19T10:18:24;94520.69;;;15.94;56.48
6694;BME280;3384;42.628;23.380;2022-10-19T10:21:00;94502.84;;;16.01;56.32
6694;BME280;3384;42.628;23.380;2022-10-19T10:23:30;94497.31;;;15.98;54.48
6694;BME280;3384;42.628;23.380;2022-10-19T10:26:00;94497.53;;;16.13;54.30
6694;BME280;3384;42.628;23.380;2022-10-19T10:28:28;94503.91;;;16.29;53.85
6694;BME280;3384;42.628;23.380;2022-10-19T10:31:00;94492.44;;;16.12;53.42
6694;BME280;3384;42.628;23.380;2022-10-19T10:33:28;94495.41;;;16.19;53.63
6694;BME280;3384;42.628;23.380;2022-10-19T10:36:00;94479.44;;;16.26;53.40
6694;BME280;3384;42.628;23.380;2022-10-19T10:38:32;94478.97;;;16.44;53.59
6694;BME280;3384;42.628;23.380;2022-10-19T10:41:02;94483.22;;;16.54;53.06
6694;BME280;3384;42.628;23.380;2022-10-19T10:43:34;94465.06;;;16.55;52.90
6694;BME280;3384;42.628;23.380;2022-10-19T10:46:04;94466.56;;;16.64;53.29
6694;BME280;3384;42.628;23.380;2022-10-19T10:48:35;94466.84;;;16.51;52.74
6694;BME280;3384;42.628;23.380;2022-10-19T10:51:08;94453.63;;;16.70;52.05
6694;BME280;3384;42.628;23.380;2022-10-19T10:53:38;94453.06;;;16.76;49.45
6694;BME280;3384;42.628;23.380;2022-10-19T10:56:21;94452.53;;;16.83;48.79
6694;BME280;3384;42.628;23.380;2022-10-19T10:58:52;94438.31;;;16.86;48.38
6694;BME280;3384;42.628;23.380;2022-10-19T11:01:22;94452.69;;;16.98;47.74
6694;BME280;3384;42.628;23.380;2022-10-19T11:03:54;94438.72;;;17.08;46.47
6694;BME280;3384;42.628;23.380;2022-10-19T11:06:24;94425.50;;;17.07;45.82
6694;BME280;3384;42.628;23.380;2022-10-19T11:08:58;94440.22;;;17.18;46.39
6694;BME280;3384;42.628;23.380;2022-10-19T11:11:31;94429.47;;;17.09;45.88
6694;BME280;3384;42.628;23.380;2022-10-19T11:14:15;94424.63;;;17.27;47.01
6694;BME280;3384;42.628;23.380;2022-10-19T11:16:49;94422.28;;;17.37;47.40
6694;BME280;3384;42.628;23.380;2022-10-19T11:19:23;94425.09;;;17.41;45.86
6694;BME280;3384;42.628;23.380;2022-10-19T11:21:56;94428.13;;;17.39;45.67
6694;BME280;3384;42.628;23.380;2022-10-19T11:24:36;94405.13;;;17.45;46.14
6694;BME280;3384;42.628;23.380;2022-10-19T11:27:16;94406.94;;;17.53;44.88
6694;BME280;3384;42.628;23.380;2022-10-19T11:30:02;94406.03;;;17.37;44.20
6694;BME280;3384;42.628;23.380;2022-10-19T11:32:37;94399.47;;;17.62;44.21
6694;BME280;3384;42.628;23.380;2022-10-19T11:35:22;94407.59;;;17.74;43.32
6694;BME280;3384;42.628;23.380;2022-10-19T11:37:57;94394.41;;;17.61;42.86
6694;BME280;3384;42.628;23.380;2022-10-19T11:40:34;94394.50;;;17.76;41.68
6694;BME280;3384;42.628;23.380;2022-10-19T11:43:06;94390.56;;;17.74;42.43
6694;BME280;3384;42.628;23.380;2022-10-19T11:45:46;94393.47;;;17.81;41.69
6694;BME280;3384;42.628;23.380;2022-10-19T11:48:27;94390.75;;;17.81;41.83
6694;BME280;3384;42.628;23.380;2022-10-19T11:51:00;94388.06;;;17.81;40.36
6694;BME280;3384;42.628;23.380;2022-10-19T11:53:35;94387.25;;;17.92;40.06
6694;BME280;3384;42.628;23.380;2022-10-19T11:56:09;94391.53;;;17.93;40.59
6694;BME280;3384;42.628;23.380;2022-10-19T11:58:56;94382.72;;;17.96;40.55
6694;BME280;3384;42.628;23.380;2022-10-19T12:01:47;94369.44;;;18.07;40.99
6694;BME280;3384;42.628;23.380;2022-10-19T12:07:18;94362.78;;;18.04;40.43
6694;BME280;3384;42.628;23.380;2022-10-19T12:09:51;94353.03;;;18.15;40.93
6694;BME280;3384;42.628;23.380;2022-10-19T12:12:30;94346.34;;;18.25;41.12
6694;BME280;3384;42.628;23.380;2022-10-19T12:15:11;94363.38;;;18.25;39.21
6694;BME280;3384;42.628;23.380;2022-10-19T12:17:41;94350.50;;;18.22;39.44
6694;BME280;3384;42.628;23.380;2022-10-19T12:20:17;94349.13;;;18.28;39.48
6694;BME280;3384;42.628;23.380;2022-10-19T12:22:47;94343.69;;;18.40;40.27
6694;BME280;3384;42.628;23.380;2022-10-19T12:25:15;94352.38;;;18.46;40.69
6694;BME280;3384;42.628;23.380;2022-10-19T12:27:45;94344.81;;;18.39;41.15
6694;BME280;3384;42.628;23.380;2022-10-19T12:30:16;94353.41;;;18.41;40.59
6694;BME280;3384;42.628;23.380;2022-10-19T12:35:56;94339.38;;;18.39;40.98
6694;BME280;3384;42.628;23.380;2022-10-19T12:38:28;94347.13;;;18.53;40.77
6694;BME280;3384;42.628;23.380;2022-10-19T12:41:02;94341.00;;;18.56;39.94
6694;BME280;3384;42.628;23.380;2022-10-19T12:43:44;94335.41;;;18.64;41.15
6694;BME280;3384;42.628;23.380;2022-10-19T12:46:26;94330.72;;;18.77;40.81
6694;BME280;3384;42.628;23.380;2022-10-19T12:52:14;94326.56;;;18.67;41.24
6694;BME280;3384;42.628;23.380;2022-10-19T12:54:42;94341.75;;;18.68;41.18
6694;BME280;3384;42.628;23.380;2022-10-19T12:57:22;94356.00;;;18.65;40.76
6694;BME280;3384;42.628;23.380;2022-10-19T13:00:05;94343.84;;;18.75;40.47
6694;BME280;3384;42.628;23.380;2022-10-19T13:02:44;94337.41;;;18.67;39.82
6694;BME280;3384;42.628;23.380;2022-10-19T13:05:19;94334.28;;;18.65;40.44
6694;BME280;3384;42.628;23.380;2022-10-19T13:07:47;94341.75;;;18.68;39.85
6694;BME280;3384;42.628;23.380;2022-10-19T13:10:20;94320.53;;;18.58;40.35
6694;BME280;3384;42.628;23.380;2022-10-19T13:12:48;94344.88;;;18.70;40.69
6694;BME280;3384;42.628;23.380;2022-10-19T13:21:45;94332.63;;;18.76;42.07
6694;BME280;3384;42.628;23.380;2022-10-19T13:24:25;94326.16;;;18.81;42.47
6694;BME280;3384;42.628;23.380;2022-10-19T13:29:50;94311.94;;;18.87;42.62
6694;BME280;3384;42.628;23.380;2022-10-19T13:32:36;94325.28;;;18.92;42.34
6694;BME280;3384;42.628;23.380;2022-10-19T13:35:22;94314.25;;;18.85;42.46
6694;BME280;3384;42.628;23.380;2022-10-19T13:38:20;94318.94;;;18.88;42.36
6694;BME280;3384;42.628;23.380;2022-10-19T13:41:02;94317.22;;;18.96;43.07
6694;BME280;3384;42.628;23.380;2022-10-19T13:43:31;94305.38;;;18.88;43.54
6694;BME280;3384;42.628;23.380;2022-10-19T13:46:04;94307.03;;;18.93;43.61
6694;BME280;3384;42.628;23.380;2022-10-19T13:48:53;94310.53;;;18.62;44.15
6694;BME280;3384;42.628;23.380;2022-10-19T13:51:28;94313.09;;;18.86;44.27